Time;durP1;ratioP1;P1;durP2;ratioP2;P2;SDS_P1;SDS_P2;PMS_P1;PMS_P2;Temp;Humidity;BMP_temperature;BMP_pressure;BME280_temperature;BME280_humidity;BME280_pressure;Samples;Min_cycle;Max_cycle;Signal;HPM_P1;HPM_P2
2022/04/30 00:01:50;;;;;;;12.23;6.65;;;;;;;8.13;71.81;103105.94;5099321;28;20053;-65
2022/04/30 00:04:16;;;;;;;12.85;6.70;;;;;;;8.04;72.09;103111.94;5077909;28;20024;-64
2022/04/30 00:06:42;;;;;;;11.80;6.63;;;;;;;8.08;71.97;103114.63;5086454;28;20055;-66
2022/04/30 00:09:07;;;;;;;11.32;6.65;;;;;;;8.08;71.89;103109.38;5085687;28;20474;-64
2022/04/30 00:11:32;;;;;;;13.55;8.18;;;;;;;8.06;72.07;103111.09;5085470;28;20074;-66
2022/04/30 00:13:58;;;;;;;14.52;7.05;;;;;;;8.06;72.13;103105.84;5069208;28;20082;-64
2022/04/30 00:16:24;;;;;;;12.32;7.32;;;;;;;8.09;71.90;103103.25;5066504;28;20104;-64
2022/04/30 00:18:49;;;;;;;16.15;7.15;;;;;;;8.11;71.83;103107.63;5066878;28;20374;-65
2022/04/30 00:21:14;;;;;;;11.70;7.47;;;;;;;8.09;71.85;103110.25;5066416;28;20033;-65
2022/04/30 00:23:40;;;;;;;18.00;6.90;;;;;;;8.03;72.08;103105.81;5064946;28;20040;-66
2022/04/30 00:26:06;;;;;;;18.65;7.28;;;;;;;7.98;72.30;103102.25;5065072;28;20032;-65
2022/04/30 00:28:31;;;;;;;10.93;6.72;;;;;;;7.98;72.46;103102.25;5067217;28;20040;-64
2022/04/30 00:30:56;;;;;;;10.40;6.70;;;;;;;7.89;72.49;103107.38;5066025;28;20063;-64
2022/04/30 00:33:23;;;;;;;14.88;7.40;;;;;;;7.72;73.06;103105.38;5066267;28;20051;-63
2022/04/30 00:35:48;;;;;;;15.18;7.25;;;;;;;7.66;73.47;103106.16;5099768;28;20032;-64
2022/04/30 00:38:15;;;;;;;12.80;7.40;;;;;;;7.61;73.70;103101.72;5086252;28;20031;-64
2022/04/30 00:40:42;;;;;;;13.20;7.38;;;;;;;7.54;73.95;103105.97;5083735;28;20036;-65
2022/04/30 00:43:07;;;;;;;16.13;7.57;;;;;;;7.54;74.05;103104.25;5085817;28;20032;-65
2022/04/30 00:45:33;;;;;;;15.10;7.97;;;;;;;7.51;74.34;103106.81;5088899;28;20070;-64
2022/04/30 00:47:58;;;;;;;15.20;8.60;;;;;;;7.48;74.61;103101.53;5085124;28;20427;-66
2022/04/30 00:50:26;;;;;;;13.40;7.68;;;;;;;7.48;74.64;103098.91;5070248;28;20019;-65
2022/04/30 00:52:52;;;;;;;15.20;8.07;;;;;;;7.48;74.68;103109.38;5069469;28;20029;-67
2022/04/30 00:55:21;;;;;;;12.30;7.35;;;;;;;7.42;75.23;103101.41;5077969;28;20058;-65
2022/04/30 00:57:49;;;;;;;12.10;7.63;;;;;;;7.45;75.04;103101.47;5123914;27;20032;-65
2022/04/30 01:00:15;;;;;;;17.08;7.43;;;;;;;7.49;74.84;103099.78;5090068;28;20051;-66
2022/04/30 01:02:40;;;;;;;15.82;8.05;;;;;;;7.40;74.83;103103.13;5078508;28;20437;-66
2022/04/30 01:05:06;;;;;;;15.15;7.80;;;;;;;7.38;74.93;103095.25;5070667;28;20024;-69
2022/04/30 01:07:32;;;;;;;15.30;7.10;;;;;;;7.40;74.78;103090.00;5069387;28;20090;-65
2022/04/30 01:09:58;;;;;;;12.68;7.07;;;;;;;7.37;74.92;103097.84;5068811;28;20141;-66
2022/04/30 01:12:23;;;;;;;17.63;7.63;;;;;;;7.30;75.02;103092.50;5068896;28;20024;-64
2022/04/30 01:14:52;;;;;;;19.50;7.80;;;;;;;7.26;75.18;103089.81;5068255;28;20031;-66
2022/04/30 01:17:18;;;;;;;12.60;7.43;;;;;;;7.24;75.32;103086.25;5086592;28;20032;-66
2022/04/30 01:19:44;;;;;;;14.20;7.50;;;;;;;7.25;75.11;103083.66;5088535;28;20020;-66
2022/04/30 01:22:20;;;;;;;19.63;7.07;;;;;;;7.28;75.19;103088.97;5122360;27;20027;-66
2022/04/30 01:24:46;;;;;;;14.90;7.38;;;;;;;7.31;74.97;103080.25;5089496;28;20031;-65
2022/04/30 01:27:12;;;;;;;10.45;6.32;;;;;;;7.32;74.84;103082.91;5122114;27;20389;-65
2022/04/30 01:29:38;;;;;;;9.40;5.80;;;;;;;7.32;74.87;103077.66;5087695;28;20024;-66
2022/04/30 01:37:36;;;;;;;12.40;6.60;;;;;;;7.27;74.62;103068.84;5089095;28;20390;-65
2022/04/30 01:40:12;;;;;;;10.77;7.60;;;;;;;7.23;74.69;103068.78;5089136;28;20474;-65
2022/04/30 01:42:41;;;;;;;11.63;7.05;;;;;;;7.16;75.01;103065.16;5088079;28;20032;-65
2022/04/30 01:45:07;;;;;;;10.20;6.38;;;;;;;7.08;75.05;103065.06;5087643;28;20228;-65
2022/04/30 01:47:35;;;;;;;18.55;7.22;;;;;;;7.01;75.50;103064.03;5089113;28;20110;-64
2022/04/30 01:50:01;;;;;;;11.80;7.40;;;;;;;7.02;75.59;103064.94;5088473;28;20035;-64
2022/04/30 01:52:26;;;;;;;16.25;7.80;;;;;;;7.02;75.94;103059.69;5069207;28;20109;-64
2022/04/30 01:54:51;;;;;;;15.82;7.28;;;;;;;7.02;76.29;103059.69;5066772;28;20028;-64
2022/04/30 01:57:23;;;;;;;18.25;8.77;;;;;;;7.03;76.44;103051.88;5068934;28;20402;-65
2022/04/30 01:59:51;;;;;;;13.10;7.40;;;;;;;7.01;76.53;103050.94;5068573;28;20028;-64
2022/04/30 02:02:16;;;;;;;12.18;7.60;;;;;;;7.01;77.05;103053.56;5068987;28;20052;-65
2022/04/30 02:04:42;;;;;;;11.75;7.28;;;;;;;7.06;76.84;103046.66;5068283;28;20475;-65
2022/04/30 02:07:07;;;;;;;10.07;6.97;;;;;;;7.20;76.45;103048.63;5082158;28;20059;-64
2022/04/30 02:09:33;;;;;;;14.80;7.80;;;;;;;7.23;76.41;103040.81;5087393;28;20016;-64
2022/04/30 02:11:59;;;;;;;10.20;6.90;;;;;;;7.27;76.47;103036.50;5074454;28;20461;-65
2022/04/30 02:14:31;;;;;;;13.38;6.90;;;;;;;7.38;76.03;103041.91;5068178;28;20119;-65
2022/04/30 02:17:03;;;;;;;11.27;6.85;;;;;;;7.49;75.64;103040.31;5076162;28;20032;-66
2022/04/30 02:20:18;;;;;;;12.98;6.65;;;;;;;7.53;75.12;103042.13;5088393;28;20043;-65
2022/04/30 02:22:15;;;;;;;13.70;7.05;;;;;;;7.53;75.23;103041.25;5075604;28;20044;-64
2022/04/30 02:24:41;;;;;;;10.07;5.72;;;;;;;7.68;74.62;103041.44;5066347;28;20078;-64
2022/04/30 02:27:06;;;;;;;11.23;6.07;;;;;;;7.72;74.37;103029.28;5077246;28;20031;-65
2022/04/30 02:29:32;;;;;;;9.18;6.78;;;;;;;7.80;74.03;103035.50;5088243;28;20036;-66
2022/04/30 02:31:57;;;;;;;12.90;6.90;;;;;;;7.93;73.58;103043.53;5085526;28;20491;-65
2022/04/30 02:34:22;;;;;;;11.35;6.57;;;;;;;7.97;73.57;103037.44;5104023;27;20032;-66
2022/04/30 02:36:48;;;;;;;12.73;6.30;;;;;;;8.08;73.20;103041.13;5067958;28;20035;-64
2022/04/30 02:39:14;;;;;;;13.07;6.57;;;;;;;7.97;73.46;103040.06;5083935;28;20208;-65
2022/04/30 02:41:39;;;;;;;10.13;5.65;;;;;;;8.18;72.89;103033.31;5084865;28;20039;-65
2022/04/30 02:44:05;;;;;;;11.45;6.25;;;;;;;8.24;72.59;103036.03;5087621;28;20059;-64
2022/04/30 02:46:31;;;;;;;14.77;6.03;;;;;;;8.41;72.01;103033.59;5087307;28;20032;-65
2022/04/30 02:48:56;;;;;;;8.98;5.13;;;;;;;8.42;71.99;103027.47;5086412;28;20501;-65
2022/04/30 02:51:22;;;;;;;8.57;5.70;;;;;;;8.49;71.65;103030.16;5086018;28;20118;-65
2022/04/30 02:53:47;;;;;;;14.63;6.10;;;;;;;8.57;71.40;103025.88;5067347;28;20028;-65
2022/04/30 02:56:12;;;;;;;10.10;5.68;;;;;;;8.58;71.29;103025.91;5066851;28;20070;-66
2022/04/30 03:01:22;;;;;;;13.13;6.63;;;;;;;8.63;70.95;103023.31;5087372;28;20077;-65
2022/04/30 03:03:48;;;;;;;7.22;5.40;;;;;;;8.70;70.58;103013.75;5086218;28;20040;-63
2022/04/30 03:06:16;;;;;;;12.48;5.30;;;;;;;8.68;70.61;103018.09;5086880;28;20301;-65
2022/04/30 03:08:41;;;;;;;8.02;5.75;;;;;;;8.68;70.12;103015.47;5086095;28;20399;-66
2022/04/30 03:11:07;;;;;;;7.65;4.97;;;;;;;8.76;70.10;103019.03;5119155;27;20494;-67
2022/04/30 03:13:34;;;;;;;10.95;4.72;;;;;;;8.74;70.09;103019.91;5086705;28;20028;-65
2022/04/30 03:21:42;;;;;;;8.13;4.97;;;;;;;8.80;69.54;103005.09;5088238;28;20508;-67
2022/04/30 03:24:11;;;;;;;9.57;5.05;;;;;;;8.78;69.11;103006.81;5070410;28;20040;-66
2022/04/30 03:26:37;;;;;;;8.77;5.35;;;;;;;8.84;68.95;103009.50;5065936;28;20027;-66
2022/04/30 03:29:03;;;;;;;8.38;4.63;;;;;;;8.96;68.82;103010.44;5065996;28;20017;-66
2022/04/30 03:31:30;;;;;;;7.28;4.68;;;;;;;8.90;68.94;103005.13;5066761;28;20020;-64
2022/04/30 03:33:55;;;;;;;6.97;5.10;;;;;;;8.86;69.04;102999.00;5072804;28;20380;-64
2022/04/30 03:36:21;;;;;;;9.25;4.80;;;;;;;8.98;68.67;102993.81;5086735;28;20024;-66
2022/04/30 03:38:47;;;;;;;6.15;4.20;;;;;;;9.09;68.30;102993.00;5081994;28;20017;-65
2022/04/30 03:41:12;;;;;;;6.13;4.00;;;;;;;9.01;68.20;102990.34;5066090;28;20360;-64
2022/04/30 03:43:38;;;;;;;5.93;4.07;;;;;;;9.09;68.05;102987.75;5071183;28;20024;-64
2022/04/30 03:46:05;;;;;;;8.55;3.83;;;;;;;9.15;68.10;102990.41;5087207;28;20060;-64
2022/04/30 03:48:30;;;;;;;5.70;4.13;;;;;;;9.16;68.10;102981.69;5085222;28;20028;-66
2022/04/30 03:50:57;;;;;;;9.35;4.25;;;;;;;9.09;68.31;102980.75;5082627;28;20364;-67
2022/04/30 03:53:22;;;;;;;6.45;4.30;;;;;;;9.06;68.58;102983.34;5065691;28;20061;-65
2022/04/30 03:55:48;;;;;;;7.93;4.72;;;;;;;9.09;68.18;102975.47;5083938;28;20024;-65
2022/04/30 03:58:13;;;;;;;5.95;4.38;;;;;;;9.25;67.74;102985.22;5086316;28;20028;-65
2022/04/30 04:00:38;;;;;;;6.47;4.30;;;;;;;9.31;67.57;102980.91;5070589;28;20093;-64
2022/04/30 04:03:04;;;;;;;6.30;3.90;;;;;;;9.41;67.27;102978.28;5083556;28;20044;-64
2022/04/30 04:05:29;;;;;;;9.00;3.92;;;;;;;9.29;67.80;102974.75;5085874;28;20529;-67
2022/04/30 04:07:57;;;;;;;6.15;4.55;;;;;;;9.26;68.09;102977.34;5085919;28;20032;-65
2022/04/30 04:10:22;;;;;;;5.65;3.80;;;;;;;9.34;67.97;102975.63;5070536;28;20027;-65
2022/04/30 04:12:48;;;;;;;9.00;4.43;;;;;;;9.35;67.84;102985.31;5066847;28;20025;-65
2022/04/30 04:17:57;;;;;;;6.72;4.72;;;;;;;9.44;67.75;102991.47;5086763;28;20513;-65
2022/04/30 04:20:25;;;;;;;5.88;4.20;;;;;;;9.29;68.62;102997.53;5088411;28;20052;-66
2022/04/30 04:22:51;;;;;;;7.53;4.80;;;;;;;9.12;69.46;102989.53;5089582;28;20032;-65
2022/04/30 04:28:00;;;;;;;6.25;4.35;;;;;;;9.32;68.48;102998.44;5090423;28;20046;-64
2022/04/30 04:30:27;;;;;;;8.07;4.78;;;;;;;9.27;68.30;103000.16;5084464;28;20024;-64
2022/04/30 04:32:53;;;;;;;7.13;4.18;;;;;;;9.30;68.55;103000.16;5072987;28;20017;-66
2022/04/30 04:35:19;;;;;;;7.38;4.10;;;;;;;9.25;67.99;103001.00;5071590;28;20043;-64
2022/04/30 04:37:45;;;;;;;6.97;4.68;;;;;;;9.28;67.88;102996.66;5070634;28;20479;-65
2022/04/30 04:40:12;;;;;;;6.43;4.75;;;;;;;9.28;68.21;102996.66;5069653;28;20025;-64
2022/04/30 04:42:42;;;;;;;8.02;4.10;;;;;;;9.29;68.63;103002.78;5069500;28;20079;-64
2022/04/30 04:45:08;;;;;;;6.90;4.63;;;;;;;9.31;68.29;103003.69;5070775;28;20028;-64
2022/04/30 04:47:34;;;;;;;6.97;4.43;;;;;;;9.40;67.79;103002.88;5070466;28;20106;-65
2022/04/30 04:50:04;;;;;;;6.20;4.03;;;;;;;9.29;68.68;102998.41;5103383;27;20059;-64
2022/04/30 04:52:29;;;;;;;;;;;;;;;9.34;68.17;103004.56;5103333;27;20413;-64
2022/04/30 04:54:55;;;;;;;7.15;4.35;;;;;;;9.29;68.57;103010.69;5102434;27;20011;-65
2022/04/30 04:57:20;;;;;;;9.48;4.45;;;;;;;9.33;68.31;103010.72;5103621;28;20031;-65
2022/04/30 04:59:45;;;;;;;10.60;4.03;;;;;;;9.51;67.53;103009.06;5079929;28;20024;-65
2022/04/30 05:02:11;;;;;;;7.93;4.60;;;;;;;9.30;68.61;103005.44;5087610;28;20044;-65
2022/04/30 05:04:36;;;;;;;8.70;4.15;;;;;;;9.42;68.54;103014.28;5088508;28;20106;-65
2022/04/30 05:07:02;;;;;;;6.38;4.15;;;;;;;9.52;68.17;103020.47;5084976;28;20115;-65
2022/04/30 05:09:28;;;;;;;9.57;4.93;;;;;;;9.51;67.96;103019.59;5084240;28;20424;-66
2022/04/30 05:11:54;;;;;;;5.55;4.05;;;;;;;9.61;67.49;103026.66;5088775;28;20067;-65
2022/04/30 05:14:19;;;;;;;9.75;4.80;;;;;;;9.44;67.76;103021.31;5089473;28;20028;-65
2022/04/30 05:16:45;;;;;;;11.15;4.57;;;;;;;9.56;67.46;103017.88;5088934;28;20592;-65
2022/04/30 05:19:10;;;;;;;7.38;4.80;;;;;;;9.53;67.75;103016.97;5089530;28;20036;-64
2022/04/30 05:21:35;;;;;;;7.38;4.35;;;;;;;9.66;67.06;103018.78;5086753;28;20000;-65
2022/04/30 05:24:01;;;;;;;7.07;4.65;;;;;;;9.61;67.55;103020.53;5088780;28;20127;-64
2022/04/30 05:26:26;;;;;;;5.93;4.72;;;;;;;9.42;68.00;103025.66;5088508;28;20027;-64
2022/04/30 05:28:52;;;;;;;9.10;5.15;;;;;;;9.62;67.20;103017.00;5087241;28;20024;-67
2022/04/30 05:31:17;;;;;;;11.40;4.95;;;;;;;9.65;67.18;103019.66;5088683;28;20458;-66
2022/04/30 05:33:43;;;;;;;6.68;4.75;;;;;;;9.74;66.89;103018.84;5086648;28;20024;-63
2022/04/30 05:36:08;;;;;;;7.20;4.90;;;;;;;9.83;66.77;103020.63;5089266;28;20020;-64
2022/04/30 05:38:33;;;;;;;7.75;5.07;;;;;;;9.91;66.96;103018.91;5087584;28;20031;-64
2022/04/30 05:41:00;;;;;;;10.70;4.85;;;;;;;9.86;67.07;103016.25;5087093;28;20066;-64
2022/04/30 05:43:25;;;;;;;10.70;5.47;;;;;;;9.86;67.52;103020.63;5086033;28;20060;-67
2022/04/30 05:45:51;;;;;;;9.75;4.10;;;;;;;10.02;66.54;103016.31;5088405;28;20062;-69
2022/04/30 05:48:16;;;;;;;7.85;5.13;;;;;;;9.95;66.72;103014.53;5084287;28;20103;-67
2022/04/30 05:50:41;;;;;;;9.48;5.55;;;;;;;10.05;66.66;103011.06;5084368;28;20100;-66
2022/04/30 05:53:07;;;;;;;10.82;5.32;;;;;;;10.07;66.48;103017.22;5088856;28;20443;-65
2022/04/30 05:55:32;;;;;;;10.50;4.32;;;;;;;10.16;66.59;103015.47;5083272;28;20524;-66
2022/04/30 05:57:57;;;;;;;10.02;4.88;;;;;;;10.23;66.18;103019.88;5068277;28;20040;-64
2022/04/30 06:00:23;;;;;;;7.70;4.93;;;;;;;10.17;66.79;103011.97;5074967;28;20513;-65
2022/04/30 06:02:49;;;;;;;6.63;5.10;;;;;;;10.11;67.74;103008.44;5088863;28;20056;-64
2022/04/30 06:05:14;;;;;;;8.43;4.45;;;;;;;10.24;67.67;103011.97;5081377;28;20475;-65
2022/04/30 06:07:40;;;;;;;8.73;4.63;;;;;;;10.18;67.99;103011.09;5069687;28;20274;-64
2022/04/30 06:10:05;;;;;;;8.90;4.93;;;;;;;10.21;67.92;103013.75;5068778;28;20113;-66
2022/04/30 06:12:31;;;;;;;11.40;5.47;;;;;;;10.28;67.79;103014.63;5069211;28;20028;-66
2022/04/30 06:14:57;;;;;;;9.10;5.35;;;;;;;10.21;68.09;103008.47;5068844;28;20449;-64
2022/04/30 06:17:22;;;;;;;9.55;5.05;;;;;;;10.28;67.80;103012.88;5067321;28;20055;-65
2022/04/30 06:19:47;;;;;;;7.80;5.95;;;;;;;10.22;69.00;103002.31;5067717;28;20021;-66
2022/04/30 06:22:13;;;;;;;9.95;5.50;;;;;;;10.32;68.73;103009.38;5066757;28;20127;-65
2022/04/30 06:24:38;;;;;;;9.90;5.80;;;;;;;10.40;68.25;103016.41;5066767;28;20021;-66
2022/04/30 06:27:04;;;;;;;14.63;5.90;;;;;;;10.43;68.17;103012.03;5067713;28;20082;-66
2022/04/30 06:29:29;;;;;;;8.10;5.25;;;;;;;10.66;67.56;103023.50;5067769;28;20024;-65
2022/04/30 06:31:56;;;;;;;9.90;5.40;;;;;;;10.82;66.22;103020.00;5066584;28;20109;-64
2022/04/30 06:34:22;;;;;;;25.88;5.55;;;;;;;10.91;65.97;103019.13;5067307;28;20025;-65
2022/04/30 06:36:47;;;;;;;11.82;5.32;;;;;;;11.01;65.60;103019.13;5067137;28;20031;-68
2022/04/30 06:39:13;;;;;;;10.25;4.47;;;;;;;11.11;65.06;103026.16;5067576;28;20052;-68
2022/04/30 06:41:38;;;;;;;11.90;5.00;;;;;;;11.03;64.89;103023.53;5070855;28;20104;-67
2022/04/30 06:44:03;;;;;;;9.90;5.35;;;;;;;11.01;65.20;103019.13;5088114;28;20032;-69
2022/04/30 06:46:29;;;;;;;11.43;5.38;;;;;;;11.06;64.72;103020.88;5081523;28;20025;-69
2022/04/30 06:48:54;;;;;;;7.53;5.28;;;;;;;10.87;65.05;103025.28;5068003;28;20060;-71
2022/04/30 06:51:19;;;;;;;5.57;4.03;;;;;;;10.91;64.79;103023.50;5066042;28;20029;-67
2022/04/30 06:59:14;;;;;;;11.73;4.88;;;;;;;10.83;65.59;103023.50;5088122;28;21266;-64
2022/04/30 07:04:09;;;;;;;7.68;4.50;;;;;;;11.19;64.59;103018.22;5088379;28;20101;-64
2022/04/30 07:06:35;;;;;;;9.90;5.07;;;;;;;11.28;64.47;103018.19;5085855;28;20693;-65
2022/04/30 07:09:06;;;;;;;11.57;5.10;;;;;;;11.38;64.14;103013.81;5086720;28;20103;-65
2022/04/30 07:11:32;;;;;;;8.27;4.65;;;;;;;11.78;63.03;103012.78;5084427;28;20024;-67
2022/04/30 07:13:58;;;;;;;10.93;6.32;;;;;;;11.98;62.09;103011.81;5086973;28;20020;-66
2022/04/30 07:16:23;;;;;;;9.13;5.43;;;;;;;11.95;61.79;103009.19;5084131;28;20085;-67
2022/04/30 07:18:48;;;;;;;9.50;4.95;;;;;;;12.20;60.99;103015.25;5087435;28;20027;-65
2022/04/30 07:21:14;;;;;;;7.53;4.97;;;;;;;12.31;60.21;103016.97;5086598;28;20028;-66
2022/04/30 07:23:40;;;;;;;6.97;5.10;;;;;;;12.26;60.95;103016.97;5067597;28;20029;-69
2022/04/30 07:26:05;;;;;;;11.15;5.13;;;;;;;12.40;61.63;103016.00;5066125;28;20056;-66
2022/04/30 07:28:33;;;;;;;8.32;4.93;;;;;;;12.87;59.40;103011.25;5065984;28;20025;-68
2022/04/30 07:30:58;;;;;;;7.85;4.53;;;;;;;13.20;58.29;103003.00;5066639;28;20020;-68
2022/04/30 07:33:24;;;;;;;6.68;4.78;;;;;;;12.99;59.26;103012.91;5066157;28;20035;-67
2022/04/30 07:35:50;;;;;;;9.32;5.22;;;;;;;13.00;58.80;102998.75;5066593;28;20024;-69
2022/04/30 07:38:15;;;;;;;9.02;5.10;;;;;;;12.87;59.24;102996.25;5076863;28;20093;-69
2022/04/30 07:40:40;;;;;;;8.93;4.32;;;;;;;13.06;57.93;103000.50;5088358;28;20170;-68
2022/04/30 07:43:06;;;;;;;11.88;4.63;;;;;;;12.84;59.14;102998.91;5077973;28;20036;-69
2022/04/30 07:45:31;;;;;;;8.50;4.40;;;;;;;12.97;58.61;103007.63;5065797;28;20036;-69
2022/04/30 07:47:56;;;;;;;9.35;5.70;;;;;;;12.97;57.52;103001.44;5065905;28;20036;-67
2022/04/30 07:50:23;;;;;;;7.07;3.95;;;;;;;12.80;56.73;103001.59;5066635;28;20082;-69
2022/04/30 07:52:49;;;;;;;7.05;4.13;;;;;;;12.96;56.34;102997.94;5065229;28;20032;-68
2022/04/30 07:55:14;;;;;;;9.88;4.30;;;;;;;12.90;56.19;102987.41;5065042;28;20028;-69
2022/04/30 07:57:40;;;;;;;5.55;3.50;;;;;;;12.54;55.74;102995.63;5064800;28;20128;-69
2022/04/30 08:00:06;;;;;;;6.38;3.60;;;;;;;12.83;55.57;102998.94;5085031;28;20028;-68
2022/04/30 08:02:32;;;;;;;7.90;4.10;;;;;;;12.99;55.87;102994.38;5065906;28;20495;-68
2022/04/30 08:05:01;;;;;;;6.25;3.05;;;;;;;12.79;53.00;102991.94;5063560;28;20136;-67
2022/04/30 08:07:26;;;;;;;6.28;3.22;;;;;;;12.55;52.00;102983.31;5065567;28;20032;-67
2022/04/30 08:09:51;;;;;;;4.43;2.70;;;;;;;12.51;52.82;102993.91;5063539;28;20517;-67
2022/04/30 08:12:18;;;;;;;6.03;2.53;;;;;;;12.70;52.30;102992.88;5066037;28;20036;-68
2022/04/30 08:14:44;;;;;;;6.28;2.78;;;;;;;12.75;52.12;102993.69;5065734;28;20016;-69
2022/04/30 08:17:10;;;;;;;4.60;2.78;;;;;;;12.76;53.06;102987.50;5078201;28;20039;-64
2022/04/30 08:19:35;;;;;;;5.38;2.92;;;;;;;12.87;52.05;102990.06;5085599;28;20036;-66
2022/04/30 08:22:00;;;;;;;6.80;3.33;;;;;;;12.97;53.30;102982.91;5082697;28;20028;-68
2022/04/30 08:24:26;;;;;;;10.52;3.33;;;;;;;13.32;51.95;102989.63;5065092;28;20047;-69
2022/04/30 08:26:51;;;;;;;5.07;3.40;;;;;;;13.61;51.16;102992.88;5064304;28;20356;-64
2022/04/30 08:29:16;;;;;;;5.25;2.78;;;;;;;13.88;49.88;102994.28;5063515;28;20048;-68
2022/04/30 08:31:41;;;;;;;5.55;2.92;;;;;;;13.96;49.23;102985.34;5063252;28;20024;-65
2022/04/30 08:34:07;;;;;;;3.50;2.47;;;;;;;13.72;49.60;102990.06;5064749;28;20058;-67
2022/04/30 08:36:32;;;;;;;5.40;2.92;;;;;;;13.55;50.20;102983.25;5062354;28;20028;-63
2022/04/30 08:38:57;;;;;;;4.63;2.90;;;;;;;13.31;52.18;102984.34;5056540;28;20557;-70
2022/04/30 08:41:23;;;;;;;5.30;3.13;;;;;;;13.03;51.47;102985.50;5083175;28;20505;-70
2022/04/30 08:43:48;;;;;;;4.78;2.63;;;;;;;12.79;51.94;102990.13;5063407;28;20078;-71
2022/04/30 08:46:14;;;;;;;2.72;2.30;;;;;;;12.42;52.68;102979.84;5085287;28;20051;-69
2022/04/30 08:48:42;;;;;;;4.38;3.30;;;;;;;12.34;53.41;102986.06;5064625;28;20583;-70
2022/04/30 08:51:08;;;;;;;5.22;3.00;;;;;;;12.34;53.70;102975.50;5063599;28;20021;-68
2022/04/30 08:53:33;;;;;;;6.25;3.55;;;;;;;12.28;53.90;102985.25;5064068;28;20520;-69
2022/04/30 08:55:58;;;;;;;6.63;2.63;;;;;;;12.45;53.77;102972.78;5062802;28;20439;-69
2022/04/30 08:58:24;;;;;;;5.00;2.83;;;;;;;12.64;53.57;102968.22;5063699;28;20530;-69
2022/04/30 09:00:49;;;;;;;7.75;3.42;;;;;;;12.66;54.43;102964.69;5065194;28;21055;-68
2022/04/30 09:03:19;;;;;;;3.97;2.50;;;;;;;13.13;52.00;102967.78;5061179;28;20048;-71
2022/04/30 09:05:45;;;;;;;6.47;2.05;;;;;;;13.50;48.84;102963.88;5063737;28;20485;-69
2022/04/30 09:08:10;;;;;;;3.63;2.10;;;;;;;13.76;47.70;102965.31;5062567;28;20056;-66
2022/04/30 09:10:37;;;;;;;3.78;2.35;;;;;;;14.02;48.06;102959.63;5060871;28;20109;-66
2022/04/30 09:13:14;;;;;;;5.57;2.53;;;;;;;14.50;47.39;102954.47;5068158;28;20493;-66
2022/04/30 09:15:42;;;;;;;2.92;2.13;;;;;;;14.86;46.60;102956.56;5064509;28;20034;-70
2022/04/30 09:18:08;;;;;;;5.75;2.92;;;;;;;14.63;49.56;102965.78;5060920;28;20032;-66
2022/04/30 09:20:48;;;;;;;8.32;2.83;;;;;;;13.78;52.42;102963.50;5056372;28;20024;-69
2022/04/30 09:23:27;;;;;;;5.93;3.03;;;;;;;13.58;52.61;102961.97;5067250;28;20032;-67
2022/04/30 09:25:53;;;;;;;;;;;;;;;13.82;52.65;102964.34;5061918;28;20033;-68
2022/04/30 09:28:26;;;;;;;5.32;3.28;;;;;;;13.45;55.42;102977.13;5067772;28;20411;-69
2022/04/30 09:31:09;;;;;;;5.93;2.70;;;;;;;13.30;56.35;102966.72;5061594;28;20027;-68
2022/04/30 09:33:36;;;;;;;3.55;2.58;;;;;;;13.13;55.93;102971.28;5060992;28;20211;-69
2022/04/30 09:38:51;;;;;;;10.73;3.25;;;;;;;13.23;56.43;102955.31;5066925;28;20134;-70
2022/04/30 09:41:26;;;;;;;4.07;2.80;;;;;;;13.32;56.19;102960.50;5066662;28;20390;-69
2022/04/30 09:44:06;;;;;;;7.55;2.97;;;;;;;13.39;55.60;102963.94;5065386;28;20032;-66
2022/04/30 09:46:39;;;;;;;8.82;2.90;;;;;;;13.41;55.44;102972.75;5061618;28;20406;-70
2022/04/30 09:54:37;;;;;;;5.53;3.33;;;;;;;13.55;56.59;102950.56;5066168;28;20042;-67
2022/04/30 09:57:07;;;;;;;;;;;;;;;13.28;57.20;102948.22;5061949;28;20041;-72
2022/04/30 09:59:37;;;;;;;8.27;3.63;;;;;;;13.33;57.58;102948.16;5068623;28;19912;-67
2022/04/30 10:02:04;;;;;;;5.78;3.03;;;;;;;13.42;57.65;102957.75;5067573;28;20135;-70
2022/04/30 10:04:30;;;;;;;5.07;3.30;;;;;;;13.50;58.91;102948.84;5062470;28;20980;-68
2022/04/30 10:06:59;;;;;;;6.43;3.63;;;;;;;13.41;59.95;102954.22;5063113;28;20432;-75
2022/04/30 10:09:28;;;;;;;7.88;3.28;;;;;;;13.46;59.94;102952.38;5066787;28;20015;-72
2022/04/30 10:12:01;;;;;;;6.88;3.38;;;;;;;13.56;58.42;102949.66;5066626;28;20028;-69
2022/04/30 10:14:33;;;;;;;5.47;3.22;;;;;;;13.68;57.53;102945.97;5060720;28;20559;-68
2022/04/30 10:19:38;;;;;;;;;;;;;;;13.96;57.93;102945.59;5066520;28;20058;-65
2022/04/30 10:22:14;;;;;;;3.85;2.75;;;;;;;14.11;56.62;102924.16;5068070;28;19912;-64
2022/04/30 10:24:46;;;;;;;5.70;2.85;;;;;;;14.32;54.67;102927.38;5063996;28;20097;-64
2022/04/30 10:27:13;;;;;;;7.13;3.33;;;;;;;14.11;56.54;102920.63;5065196;28;20032;-66
2022/04/30 10:29:50;;;;;;;6.78;3.15;;;;;;;13.88;56.68;102928.03;5066596;28;20074;-66
2022/04/30 10:32:33;;;;;;;6.20;3.20;;;;;;;14.05;56.48;102929.56;5066133;28;20111;-64
2022/04/30 10:34:59;;;;;;;5.35;2.60;;;;;;;14.15;55.79;102925.00;5065267;28;20038;-66
2022/04/30 10:37:33;;;;;;;7.15;3.00;;;;;;;14.19;55.41;102923.16;5075619;28;20390;-64
2022/04/30 10:40:07;;;;;;;5.95;3.30;;;;;;;14.17;55.20;102919.69;5076371;28;20036;-66
2022/04/30 10:42:43;;;;;;;8.48;3.15;;;;;;;14.05;55.07;102911.00;5081919;28;20382;-64
2022/04/30 10:45:12;;;;;;;6.50;2.28;;;;;;;13.84;54.57;102921.03;5087449;28;20036;-65
2022/04/30 10:47:54;;;;;;;4.25;2.00;;;;;;;13.51;53.66;102907.34;5085775;28;20032;-64
2022/04/30 10:50:20;;;;;;;5.95;1.95;;;;;;;13.63;51.90;102912.47;5085737;28;20053;-71
2022/04/30 10:52:50;;;;;;;4.70;2.00;;;;;;;13.37;53.01;102903.06;5085313;28;20024;-76
2022/04/30 10:55:17;;;;;;;5.05;2.28;;;;;;;13.30;54.61;102908.47;5086188;28;20454;-71
2022/04/30 10:57:43;;;;;;;8.90;2.78;;;;;;;13.24;55.25;102910.28;5084559;28;20038;-68
2022/04/30 11:00:09;;;;;;;7.85;2.28;;;;;;;13.39;54.68;102898.63;5086782;28;20016;-73
2022/04/30 11:02:35;;;;;;;4.97;2.13;;;;;;;13.49;54.34;102899.41;5087280;28;20048;-72
2022/04/30 11:05:01;;;;;;;3.03;2.15;;;;;;;13.43;54.84;102902.13;5086395;28;20393;-70
2022/04/30 11:07:28;;;;;;;5.47;2.00;;;;;;;13.48;54.24;102910.00;5109008;27;20461;-69
2022/04/30 11:09:53;;;;;;;4.53;1.90;;;;;;;13.75;53.84;102907.91;5086448;28;20452;-68
2022/04/30 11:12:19;;;;;;;5.57;2.05;;;;;;;13.97;52.86;102919.06;5087037;28;20043;-68
2022/04/30 11:14:45;;;;;;;3.38;1.77;;;;;;;14.11;50.91;102908.25;5086454;28;20111;-66
2022/04/30 11:17:10;;;;;;;4.22;1.70;;;;;;;14.26;50.89;102909.78;5087131;28;20290;-66
2022/04/30 11:19:43;;;;;;;2.55;1.50;;;;;;;14.51;49.52;102911.16;5110677;27;20035;-66
2022/04/30 11:22:09;;;;;;;3.10;1.30;;;;;;;14.83;48.40;102900.88;5080371;28;20121;-68
2022/04/30 11:24:35;;;;;;;3.30;1.55;;;;;;;14.95;48.58;102899.75;5085353;28;20120;-67
2022/04/30 11:27:12;;;;;;;3.42;1.83;;;;;;;15.06;48.85;102897.78;5085231;28;20094;-67
2022/04/30 11:29:48;;;;;;;4.47;1.70;;;;;;;15.05;47.82;102887.19;5084308;28;20081;-71
2022/04/30 11:32:23;;;;;;;4.70;1.60;;;;;;;15.22;47.09;102905.44;5084273;28;20032;-69
2022/04/30 11:34:49;;;;;;;4.07;1.40;;;;;;;15.63;46.34;102890.38;5086248;28;20028;-66
2022/04/30 11:37:15;;;;;;;2.53;1.50;;;;;;;15.34;46.65;102886.59;5083961;28;20032;-71
2022/04/30 11:39:40;;;;;;;5.43;1.52;;;;;;;15.20;47.12;102896.63;5085339;28;20020;-65
2022/04/30 11:42:06;;;;;;;2.92;1.50;;;;;;;15.19;47.07;102886.91;5086196;28;20039;-66
2022/04/30 11:44:31;;;;;;;1.70;1.35;;;;;;;15.16;47.85;102888.72;5084192;28;20445;-65
2022/04/30 11:46:56;;;;;;;4.65;1.52;;;;;;;15.37;47.16;102898.91;5085092;28;20046;-67
2022/04/30 11:49:23;;;;;;;4.63;1.25;;;;;;;15.46;46.24;102889.88;5084608;28;20482;-69
2022/04/30 11:51:50;;;;;;;4.57;1.30;;;;;;;15.71;45.23;102886.69;5086009;28;20024;-67
2022/04/30 11:54:17;;;;;;;2.03;1.00;;;;;;;15.73;45.51;102877.78;5085415;28;20094;-65
2022/04/30 11:56:44;;;;;;;2.05;1.25;;;;;;;15.96;44.14;102883.44;5085831;28;20099;-68
2022/04/30 11:59:09;;;;;;;1.77;1.20;;;;;;;15.24;46.98;102870.00;5082280;28;20034;-67
2022/04/30 12:01:38;;;;;;;2.42;1.15;;;;;;;15.27;46.02;102875.22;5063071;28;20040;-66
2022/04/30 12:04:05;;;;;;;6.43;1.63;;;;;;;15.14;46.90;102868.44;5086001;28;20031;-67